sensor_id;sensor_type;location;lat;lon;timestamp;pressure;altitude;pressure_sealevel;temperature;humidity
71344;BME280;59146;43.850;25.948;2023-05-19T00:01:35;101096.50;;;14.25;91.83
71344;BME280;59146;43.850;25.948;2023-05-19T00:04:02;101009.09;;;13.57;91.91
71344;BME280;59146;43.850;25.948;2023-05-19T00:06:30;101071.59;;;13.91;92.18
71344;BME280;59146;43.850;25.948;2023-05-19T00:09:09;101072.03;;;13.98;92.23
71344;BME280;59146;43.850;25.948;2023-05-19T00:11:37;101060.25;;;13.91;92.13
71344;BME280;59146;43.850;25.948;2023-05-19T00:14:07;101066.97;;;13.82;92.14
71344;BME280;59146;43.850;25.948;2023-05-19T00:16:33;101057.28;;;13.83;92.78
71344;BME280;59146;43.850;25.948;2023-05-19T00:19:01;101091.34;;;13.84;92.17
71344;BME280;59146;43.850;25.948;2023-05-19T00:21:28;101098.13;;;14.01;91.77
71344;BME280;59146;43.850;25.948;2023-05-19T00:23:54;100990.31;;;13.36;91.90
71344;BME280;59146;43.850;25.948;2023-05-19T00:26:19;101129.91;;;14.23;92.22
71344;BME280;59146;43.850;25.948;2023-05-19T00:28:47;101055.19;;;13.88;91.38
71344;BME280;59146;43.850;25.948;2023-05-19T00:31:12;101081.91;;;13.94;90.88
71344;BME280;59146;43.850;25.948;2023-05-19T00:33:37;101125.88;;;14.05;91.57
71344;BME280;59146;43.850;25.948;2023-05-19T00:36:03;101090.03;;;13.77;91.49
71344;BME280;59146;43.850;25.948;2023-05-19T00:38:30;101117.81;;;13.94;91.62
71344;BME280;59146;43.850;25.948;2023-05-19T00:40:57;101055.63;;;13.41;91.48
71344;BME280;59146;43.850;25.948;2023-05-19T00:43:22;101141.66;;;13.91;91.58
71344;BME280;59146;43.850;25.948;2023-05-19T00:45:48;101101.22;;;13.67;91.54
71344;BME280;59146;43.850;25.948;2023-05-19T00:48:13;100994.31;;;13.01;91.62
71344;BME280;59146;43.850;25.948;2023-05-19T00:50:39;100981.41;;;12.98;91.76
71344;BME280;59146;43.850;25.948;2023-05-19T00:53:05;101163.50;;;14.05;91.75
71344;BME280;59146;43.850;25.948;2023-05-19T00:55:32;101097.88;;;13.50;92.16
71344;BME280;59146;43.850;25.948;2023-05-19T00:57:58;101133.91;;;13.75;92.91
71344;BME280;59146;43.850;25.948;2023-05-19T01:00:24;101157.91;;;13.83;92.76
71344;BME280;59146;43.850;25.948;2023-05-19T01:02:49;101116.25;;;13.50;93.66
71344;BME280;59146;43.850;25.948;2023-05-19T01:05:16;101149.09;;;13.84;93.42
71344;BME280;59146;43.850;25.948;2023-05-19T01:07:42;101145.34;;;13.88;93.37
71344;BME280;59146;43.850;25.948;2023-05-19T01:10:08;101141.47;;;13.94;93.46
71344;BME280;59146;43.850;25.948;2023-05-19T01:12:34;101106.81;;;13.75;93.09
71344;BME280;59146;43.850;25.948;2023-05-19T01:15:02;101122.97;;;13.69;93.35
71344;BME280;59146;43.850;25.948;2023-05-19T01:30:41;101137.34;;;13.90;91.83
71344;BME280;59146;43.850;25.948;2023-05-19T01:33:09;101093.91;;;13.57;91.72
71344;BME280;59146;43.850;25.948;2023-05-19T01:35:37;101156.28;;;13.95;91.76
71344;BME280;59146;43.850;25.948;2023-05-19T01:38:07;101095.16;;;13.52;91.55
71344;BME280;59146;43.850;25.948;2023-05-19T01:40:33;101121.75;;;13.60;92.66
71344;BME280;59146;43.850;25.948;2023-05-19T01:43:00;101060.53;;;13.19;93.25
71344;BME280;59146;43.850;25.948;2023-05-19T01:45:31;101138.53;;;13.72;93.03
71344;BME280;59146;43.850;25.948;2023-05-19T01:47:57;101142.16;;;13.83;92.39
71344;BME280;59146;43.850;25.948;2023-05-19T01:50:23;101132.16;;;13.76;92.03
71344;BME280;59146;43.850;25.948;2023-05-19T01:52:49;101086.44;;;13.51;91.61
71344;BME280;59146;43.850;25.948;2023-05-19T01:55:15;101148.03;;;13.87;91.77
71344;BME280;59146;43.850;25.948;2023-05-19T02:05:30;101061.56;;;12.88;94.71
71344;BME280;59146;43.850;25.948;2023-05-19T02:08:10;101133.53;;;13.40;94.40
71344;BME280;59146;43.850;25.948;2023-05-19T02:10:39;101149.22;;;13.69;93.20
71344;BME280;59146;43.850;25.948;2023-05-19T02:13:05;101131.91;;;13.52;92.67
71344;BME280;59146;43.850;25.948;2023-05-19T02:15:44;101163.84;;;13.73;92.38
71344;BME280;59146;43.850;25.948;2023-05-19T02:18:10;101118.88;;;13.36;92.40
71344;BME280;59146;43.850;25.948;2023-05-19T02:20:37;101143.78;;;13.57;92.64
71344;BME280;59146;43.850;25.948;2023-05-19T02:23:03;101151.88;;;13.54;92.26
71344;BME280;59146;43.850;25.948;2023-05-19T02:25:29;101111.78;;;13.24;92.25
71344;BME280;59146;43.850;25.948;2023-05-19T02:27:54;101114.59;;;13.21;92.59
71344;BME280;59146;43.850;25.948;2023-05-19T02:30:20;101121.88;;;13.30;92.27
71344;BME280;59146;43.850;25.948;2023-05-19T02:32:45;101195.81;;;13.65;91.64
71344;BME280;59146;43.850;25.948;2023-05-19T02:35:11;101169.31;;;13.41;91.91
71344;BME280;59146;43.850;25.948;2023-05-19T02:37:37;101168.75;;;13.22;92.69
71344;BME280;59146;43.850;25.948;2023-05-19T02:40:03;101122.53;;;12.77;93.62
71344;BME280;59146;43.850;25.948;2023-05-19T02:42:28;101180.09;;;13.23;93.99
71344;BME280;59146;43.850;25.948;2023-05-19T02:44:54;101200.22;;;13.36;92.60
71344;BME280;59146;43.850;25.948;2023-05-19T02:47:20;101144.19;;;13.09;92.74
71344;BME280;59146;43.850;25.948;2023-05-19T02:49:45;101071.66;;;12.66;92.14
71344;BME280;59146;43.850;25.948;2023-05-19T02:52:10;101191.81;;;13.31;91.89
71344;BME280;59146;43.850;25.948;2023-05-19T02:54:36;101046.84;;;12.43;91.30
71344;BME280;59146;43.850;25.948;2023-05-19T02:57:01;101166.53;;;13.01;91.94
71344;BME280;59146;43.850;25.948;2023-05-19T02:59:27;101194.69;;;13.13;91.99
71344;BME280;59146;43.850;25.948;2023-05-19T03:01:58;101159.28;;;13.06;91.42
71344;BME280;59146;43.850;25.948;2023-05-19T03:04:25;101183.66;;;13.36;90.76
71344;BME280;59146;43.850;25.948;2023-05-19T03:06:50;101177.34;;;13.38;89.85
71344;BME280;59146;43.850;25.948;2023-05-19T03:09:15;101200.41;;;13.62;89.04
71344;BME280;59146;43.850;25.948;2023-05-19T03:11:41;101201.38;;;13.46;90.03
71344;BME280;59146;43.850;25.948;2023-05-19T03:14:06;101219.84;;;14.00;88.79
71344;BME280;59146;43.850;25.948;2023-05-19T03:16:36;101192.97;;;14.50;84.87
71344;BME280;59146;43.850;25.948;2023-05-19T03:19:01;101241.22;;;15.52;80.30
71344;BME280;59146;43.850;25.948;2023-05-19T03:21:27;101185.56;;;15.82;76.94
71344;BME280;59146;43.850;25.948;2023-05-19T03:23:52;101240.56;;;16.23;74.71
71344;BME280;59146;43.850;25.948;2023-05-19T03:26:18;101209.28;;;16.42;74.22
71344;BME280;59146;43.850;25.948;2023-05-19T03:28:44;101220.59;;;17.13;70.92
71344;BME280;59146;43.850;25.948;2023-05-19T03:31:09;101238.31;;;17.79;68.14
71344;BME280;59146;43.850;25.948;2023-05-19T03:33:35;101222.41;;;18.01;65.69
71344;BME280;59146;43.850;25.948;2023-05-19T03:36:00;101199.88;;;18.72;63.35
71344;BME280;59146;43.850;25.948;2023-05-19T03:38:26;101243.81;;;19.25;61.73
71344;BME280;59146;43.850;25.948;2023-05-19T03:40:51;101204.50;;;19.00;61.54
71344;BME280;59146;43.850;25.948;2023-05-19T03:43:17;101206.31;;;19.41;60.65
71344;BME280;59146;43.850;25.948;2023-05-19T03:45:43;101231.22;;;19.99;58.94
71344;BME280;59146;43.850;25.948;2023-05-19T03:48:08;101169.22;;;19.80;58.04
71344;BME280;59146;43.850;25.948;2023-05-19T03:50:34;101206.50;;;20.47;55.67
71344;BME280;59146;43.850;25.948;2023-05-19T03:52:59;101260.44;;;20.67;56.26
71344;BME280;59146;43.850;25.948;2023-05-19T03:55:25;101261.78;;;21.38;54.03
71344;BME280;59146;43.850;25.948;2023-05-19T03:57:51;101270.66;;;21.66;52.91
71344;BME280;59146;43.850;25.948;2023-05-19T04:00:20;101261.34;;;21.89;52.01
71344;BME280;59146;43.850;25.948;2023-05-19T04:02:45;101238.34;;;21.14;53.32
71344;BME280;59146;43.850;25.948;2023-05-19T04:05:11;101210.44;;;21.38;52.71
71344;BME280;59146;43.850;25.948;2023-05-19T04:07:36;101219.81;;;21.42;52.53
71344;BME280;59146;43.850;25.948;2023-05-19T04:10:05;101217.63;;;21.18;52.35
71344;BME280;59146;43.850;25.948;2023-05-19T04:12:31;101274.63;;;21.89;51.74
71344;BME280;59146;43.850;25.948;2023-05-19T04:14:57;101254.22;;;21.80;51.69
71344;BME280;59146;43.850;25.948;2023-05-19T04:17:22;101245.25;;;21.44;51.93
71344;BME280;59146;43.850;25.948;2023-05-19T04:19:53;101278.44;;;21.77;51.99
71344;BME280;59146;43.850;25.948;2023-05-19T04:22:19;101135.28;;;21.18;51.54
71344;BME280;59146;43.850;25.948;2023-05-19T04:24:44;101210.94;;;22.14;50.27
71344;BME280;59146;43.850;25.948;2023-05-19T04:27:10;101268.19;;;22.99;48.73
71344;BME280;59146;43.850;25.948;2023-05-19T04:29:37;101275.19;;;22.64;50.27
71344;BME280;59146;43.850;25.948;2023-05-19T04:32:04;101265.63;;;22.71;49.89
71344;BME280;59146;43.850;25.948;2023-05-19T04:34:34;101275.38;;;23.24;48.68
71344;BME280;59146;43.850;25.948;2023-05-19T04:37:01;101234.19;;;23.36;47.49
71344;BME280;59146;43.850;25.948;2023-05-19T04:39:26;101203.91;;;22.41;49.09
71344;BME280;59146;43.850;25.948;2023-05-19T04:41:52;101287.97;;;23.14;49.02
71344;BME280;59146;43.850;25.948;2023-05-19T04:44:20;101285.78;;;23.52;47.83
71344;BME280;59146;43.850;25.948;2023-05-19T04:46:46;101286.56;;;23.71;47.61
71344;BME280;59146;43.850;25.948;2023-05-19T04:49:11;101278.34;;;23.98;46.85
71344;BME280;59146;43.850;25.948;2023-05-19T04:51:37;101280.66;;;22.98;48.65
71344;BME280;59146;43.850;25.948;2023-05-19T04:54:08;101276.44;;;22.70;50.31
71344;BME280;59146;43.850;25.948;2023-05-19T04:56:34;101271.16;;;22.60;50.59
71344;BME280;59146;43.850;25.948;2023-05-19T04:59:00;101246.84;;;21.74;52.29
71344;BME280;59146;43.850;25.948;2023-05-19T05:01:25;101292.81;;;22.21;51.99
71344;BME280;59146;43.850;25.948;2023-05-19T05:03:51;101287.25;;;21.12;54.22
71344;BME280;59146;43.850;25.948;2023-05-19T05:06:23;101284.31;;;21.05;54.81
71344;BME280;59146;43.850;25.948;2023-05-19T05:08:49;101302.09;;;21.14;54.75
71344;BME280;59146;43.850;25.948;2023-05-19T05:11:15;101299.56;;;21.32;54.64
71344;BME280;59146;43.850;25.948;2023-05-19T05:13:41;101296.66;;;21.06;56.11
71344;BME280;59146;43.850;25.948;2023-05-19T05:16:07;101211.63;;;20.20;57.08
71344;BME280;59146;43.850;25.948;2023-05-19T05:18:33;101255.94;;;20.58;56.86
71344;BME280;59146;43.850;25.948;2023-05-19T05:21:00;101285.16;;;20.77;56.16
71344;BME280;59146;43.850;25.948;2023-05-19T05:23:26;101305.97;;;20.63;56.95
71344;BME280;59146;43.850;25.948;2023-05-19T05:25:52;101274.94;;;21.20;54.21
71344;BME280;59146;43.850;25.948;2023-05-19T05:28:20;101310.81;;;21.63;53.76
71344;BME280;59146;43.850;25.948;2023-05-19T05:30:45;101281.25;;;21.00;55.35
71344;BME280;59146;43.850;25.948;2023-05-19T05:33:11;101258.19;;;20.91;55.23
71344;BME280;59146;43.850;25.948;2023-05-19T05:35:36;101337.56;;;21.61;54.60
71344;BME280;59146;43.850;25.948;2023-05-19T05:38:02;101296.47;;;20.89;55.64
71344;BME280;59146;43.850;25.948;2023-05-19T05:40:27;101302.91;;;21.05;55.89
71344;BME280;59146;43.850;25.948;2023-05-19T05:42:53;101310.66;;;21.74;54.21
71344;BME280;59146;43.850;25.948;2023-05-19T05:45:21;101246.19;;;20.78;55.71
71344;BME280;59146;43.850;25.948;2023-05-19T05:47:47;101339.50;;;21.50;54.72
71344;BME280;59146;43.850;25.948;2023-05-19T05:50:13;101319.44;;;21.28;55.01
71344;BME280;59146;43.850;25.948;2023-05-19T05:52:40;101181.59;;;20.20;56.13
71344;BME280;59146;43.850;25.948;2023-05-19T05:55:07;101269.66;;;20.63;56.63
71344;BME280;59146;43.850;25.948;2023-05-19T05:57:32;101348.22;;;21.32;56.66
71344;BME280;59146;43.850;25.948;2023-05-19T06:00:00;101330.81;;;21.67;54.64
71344;BME280;59146;43.850;25.948;2023-05-19T06:02:26;101347.28;;;21.80;54.69
71344;BME280;59146;43.850;25.948;2023-05-19T06:04:52;101267.59;;;21.51;55.18
71344;BME280;59146;43.850;25.948;2023-05-19T06:07:18;101319.63;;;21.82;54.97
71344;BME280;59146;43.850;25.948;2023-05-19T06:09:44;101342.31;;;22.13;54.47
71344;BME280;59146;43.850;25.948;2023-05-19T06:12:09;101301.75;;;22.02;53.78
71344;BME280;59146;43.850;25.948;2023-05-19T06:14:35;101306.13;;;21.93;53.27
71344;BME280;59146;43.850;25.948;2023-05-19T06:17:01;101341.56;;;22.21;52.85
71344;BME280;59146;43.850;25.948;2023-05-19T06:19:26;101219.72;;;21.61;52.72
71344;BME280;59146;43.850;25.948;2023-05-19T06:21:52;101320.25;;;22.48;51.61
71344;BME280;59146;43.850;25.948;2023-05-19T06:24:17;101346.25;;;22.37;52.41
71344;BME280;59146;43.850;25.948;2023-05-19T06:26:43;101331.59;;;22.50;53.41
71344;BME280;59146;43.850;25.948;2023-05-19T06:29:08;101315.94;;;22.47;51.73
71344;BME280;59146;43.850;25.948;2023-05-19T06:31:33;101342.50;;;22.57;52.15
71344;BME280;59146;43.850;25.948;2023-05-19T06:33:59;101278.22;;;22.25;51.81
71344;BME280;59146;43.850;25.948;2023-05-19T06:36:24;101360.59;;;22.80;52.14
71344;BME280;59146;43.850;25.948;2023-05-19T06:38:50;101319.13;;;22.78;51.81
71344;BME280;59146;43.850;25.948;2023-05-19T06:41:15;101321.56;;;22.89;51.20
71344;BME280;59146;43.850;25.948;2023-05-19T06:43:41;101380.47;;;23.04;52.03
71344;BME280;59146;43.850;25.948;2023-05-19T06:46:07;101326.63;;;23.00;50.73
71344;BME280;59146;43.850;25.948;2023-05-19T06:48:33;101349.38;;;23.30;50.54
71344;BME280;59146;43.850;25.948;2023-05-19T06:50:58;101371.19;;;23.43;50.13
71344;BME280;59146;43.850;25.948;2023-05-19T06:53:23;101358.56;;;23.45;50.05
71344;BME280;59146;43.850;25.948;2023-05-19T06:55:49;101326.56;;;23.45;50.04
71344;BME280;59146;43.850;25.948;2023-05-19T06:58:15;101380.38;;;23.66;49.80
71344;BME280;59146;43.850;25.948;2023-05-19T07:00:40;101325.00;;;23.60;48.83
71344;BME280;59146;43.850;25.948;2023-05-19T07:03:07;101384.47;;;23.78;49.99
71344;BME280;59146;43.850;25.948;2023-05-19T07:05:32;101366.38;;;23.90;49.49
71344;BME280;59146;43.850;25.948;2023-05-19T07:07:58;101370.63;;;23.57;49.16
71344;BME280;59146;43.850;25.948;2023-05-19T07:10:24;101322.97;;;23.54;49.40
71344;BME280;59146;43.850;25.948;2023-05-19T07:12:49;101328.78;;;23.75;48.26
71344;BME280;59146;43.850;25.948;2023-05-19T07:15:15;101340.22;;;23.67;49.86
71344;BME280;59146;43.850;25.948;2023-05-19T07:17:40;101341.47;;;23.81;49.30
71344;BME280;59146;43.850;25.948;2023-05-19T07:20:06;101351.34;;;24.14;47.73
71344;BME280;59146;43.850;25.948;2023-05-19T07:22:34;101329.31;;;23.87;48.06
71344;BME280;59146;43.850;25.948;2023-05-19T07:25:00;101313.94;;;23.81;48.58
71344;BME280;59146;43.850;25.948;2023-05-19T07:27:25;101308.16;;;24.11;47.84
71344;BME280;59146;43.850;25.948;2023-05-19T07:29:50;101377.34;;;24.38;48.62
71344;BME280;59146;43.850;25.948;2023-05-19T07:32:16;101368.09;;;24.32;47.39
71344;BME280;59146;43.850;25.948;2023-05-19T07:34:41;101361.00;;;24.49;47.87
71344;BME280;59146;43.850;25.948;2023-05-19T07:37:07;101338.38;;;24.69;46.11
71344;BME280;59146;43.850;25.948;2023-05-19T07:39:33;101337.28;;;24.96;45.42
71344;BME280;59146;43.850;25.948;2023-05-19T07:41:59;101245.41;;;24.81;45.31
71344;BME280;59146;43.850;25.948;2023-05-19T07:44:24;101314.81;;;24.57;46.12
71344;BME280;59146;43.850;25.948;2023-05-19T07:46:51;101315.13;;;24.70;45.83
71344;BME280;59146;43.850;25.948;2023-05-19T07:49:16;101306.53;;;25.16;45.43
71344;BME280;59146;43.850;25.948;2023-05-19T07:51:42;101364.78;;;26.17;42.24
71344;BME280;59146;43.850;25.948;2023-05-19T07:54:07;101357.88;;;26.31;42.35
71344;BME280;59146;43.850;25.948;2023-05-19T07:56:33;101371.84;;;26.49;42.28
71344;BME280;59146;43.850;25.948;2023-05-19T07:58:58;101348.34;;;26.59;41.79
71344;BME280;59146;43.850;25.948;2023-05-19T08:01:24;101337.81;;;26.57;42.13
71344;BME280;59146;43.850;25.948;2023-05-19T08:03:50;101313.44;;;26.44;41.02
71344;BME280;59146;43.850;25.948;2023-05-19T08:06:16;101336.16;;;26.87;40.58
71344;BME280;59146;43.850;25.948;2023-05-19T08:08:41;101346.13;;;26.70;41.31
71344;BME280;59146;43.850;25.948;2023-05-19T08:11:06;101338.22;;;26.77;40.94
71344;BME280;59146;43.850;25.948;2023-05-19T08:13:32;101350.50;;;26.63;41.49
71344;BME280;59146;43.850;25.948;2023-05-19T08:15:59;101315.78;;;26.47;40.15
71344;BME280;59146;43.850;25.948;2023-05-19T08:18:27;101367.03;;;26.67;41.95
71344;BME280;59146;43.850;25.948;2023-05-19T08:20:53;101338.00;;;26.17;42.41
71344;BME280;59146;43.850;25.948;2023-05-19T08:23:20;101351.56;;;25.99;42.86
71344;BME280;59146;43.850;25.948;2023-05-19T08:25:45;101348.47;;;25.72;43.56
71344;BME280;59146;43.850;25.948;2023-05-19T08:28:11;101365.06;;;25.59;44.47
71344;BME280;59146;43.850;25.948;2023-05-19T08:30:36;101306.53;;;25.24;44.45
71344;BME280;59146;43.850;25.948;2023-05-19T08:33:02;101346.63;;;25.24;44.69
71344;BME280;59146;43.850;25.948;2023-05-19T08:35:27;101356.69;;;25.38;44.99
71344;BME280;59146;43.850;25.948;2023-05-19T08:37:53;101316.22;;;25.17;45.09
71344;BME280;59146;43.850;25.948;2023-05-19T08:40:19;101324.25;;;25.17;44.92
71344;BME280;59146;43.850;25.948;2023-05-19T08:42:45;101317.56;;;25.21;44.15
71344;BME280;59146;43.850;25.948;2023-05-19T08:45:10;101288.66;;;25.16;43.35
71344;BME280;59146;43.850;25.948;2023-05-19T08:47:36;101340.63;;;25.62;42.56
71344;BME280;59146;43.850;25.948;2023-05-19T08:50:06;101314.09;;;25.45;43.84
71344;BME280;59146;43.850;25.948;2023-05-19T08:52:57;101351.28;;;25.86;43.13
71344;BME280;59146;43.850;25.948;2023-05-19T08:58:03;101345.63;;;25.73;43.77
71344;BME280;59146;43.850;25.948;2023-05-19T09:00:29;101315.25;;;25.42;43.59
71344;BME280;59146;43.850;25.948;2023-05-19T09:02:55;101297.00;;;25.38;43.78
71344;BME280;59146;43.850;25.948;2023-05-19T09:05:22;101361.84;;;25.80;43.61
71344;BME280;59146;43.850;25.948;2023-05-19T09:07:47;101332.09;;;25.35;45.73
71344;BME280;59146;43.850;25.948;2023-05-19T09:10:13;101349.00;;;25.59;44.92
71344;BME280;59146;43.850;25.948;2023-05-19T09:12:44;101343.31;;;25.38;45.95
71344;BME280;59146;43.850;25.948;2023-05-19T09:15:11;101303.19;;;25.38;44.95
71344;BME280;59146;43.850;25.948;2023-05-19T09:17:37;101302.03;;;25.41;45.07
71344;BME280;59146;43.850;25.948;2023-05-19T09:20:04;101312.56;;;25.34;44.41
71344;BME280;59146;43.850;25.948;2023-05-19T09:22:44;101345.66;;;25.57;44.87
71344;BME280;59146;43.850;25.948;2023-05-19T09:25:18;101273.44;;;25.49;42.99
71344;BME280;59146;43.850;25.948;2023-05-19T09:27:47;101332.50;;;26.11;42.02
71344;BME280;59146;43.850;25.948;2023-05-19T09:30:17;101313.31;;;26.60;40.39
71344;BME280;59146;43.850;25.948;2023-05-19T09:32:44;101333.88;;;26.76;39.13
71344;BME280;59146;43.850;25.948;2023-05-19T09:35:12;101283.94;;;26.22;39.88
71344;BME280;59146;43.850;25.948;2023-05-19T09:37:42;101289.25;;;26.30;40.22
71344;BME280;59146;43.850;25.948;2023-05-19T09:40:12;101295.53;;;26.67;39.20
71344;BME280;59146;43.850;25.948;2023-05-19T09:42:39;101340.78;;;27.16;39.94
71344;BME280;59146;43.850;25.948;2023-05-19T09:45:05;101311.47;;;27.14;39.70
71344;BME280;59146;43.850;25.948;2023-05-19T09:47:38;101268.31;;;27.24;37.96
71344;BME280;59146;43.850;25.948;2023-05-19T09:50:08;101298.06;;;27.37;37.72
71344;BME280;59146;43.850;25.948;2023-05-19T09:52:35;101268.69;;;26.98;39.49
71344;BME280;59146;43.850;25.948;2023-05-19T09:55:02;101308.41;;;27.40;38.02
71344;BME280;59146;43.850;25.948;2023-05-19T09:57:33;101308.91;;;27.43;38.55
71344;BME280;59146;43.850;25.948;2023-05-19T10:00:05;101318.06;;;27.64;37.31
71344;BME280;59146;43.850;25.948;2023-05-19T10:02:43;101243.31;;;27.23;38.04
71344;BME280;59146;43.850;25.948;2023-05-19T10:05:13;101290.13;;;27.73;36.84
71344;BME280;59146;43.850;25.948;2023-05-19T10:07:48;101319.56;;;27.81;37.15
71344;BME280;59146;43.850;25.948;2023-05-19T10:10:16;101306.25;;;28.16;36.39
71344;BME280;59146;43.850;25.948;2023-05-19T10:12:41;101290.63;;;28.41;34.80
71344;BME280;59146;43.850;25.948;2023-05-19T10:15:09;101317.63;;;28.33;35.44
71344;BME280;59146;43.850;25.948;2023-05-19T10:17:37;101277.91;;;27.70;35.04
71344;BME280;59146;43.850;25.948;2023-05-19T10:20:04;101299.94;;;27.66;36.20
71344;BME280;59146;43.850;25.948;2023-05-19T10:22:32;101305.13;;;27.82;36.21
71344;BME280;59146;43.850;25.948;2023-05-19T10:25:02;101269.41;;;27.67;35.48
71344;BME280;59146;43.850;25.948;2023-05-19T10:27:28;101153.50;;;26.90;35.30
71344;BME280;59146;43.850;25.948;2023-05-19T10:29:56;101293.53;;;27.37;35.52
71344;BME280;59146;43.850;25.948;2023-05-19T10:32:26;101294.72;;;27.35;36.75
71344;BME280;59146;43.850;25.948;2023-05-19T10:35:11;101301.69;;;27.21;35.72
71344;BME280;59146;43.850;25.948;2023-05-19T10:38:10;101295.31;;;27.22;36.05
71344;BME280;59146;43.850;25.948;2023-05-19T10:43:53;101283.44;;;27.39;36.21
71344;BME280;59146;43.850;25.948;2023-05-19T10:46:26;101276.22;;;27.40;36.04
71344;BME280;59146;43.850;25.948;2023-05-19T10:48:53;101249.22;;;27.41;36.31
71344;BME280;59146;43.850;25.948;2023-05-19T10:51:18;101246.75;;;27.17;36.11
71344;BME280;59146;43.850;25.948;2023-05-19T10:53:44;101251.56;;;27.22;38.33
71344;BME280;59146;43.850;25.948;2023-05-19T10:56:47;101273.06;;;27.36;37.06
71344;BME280;59146;43.850;25.948;2023-05-19T10:59:33;101262.09;;;27.23;35.28
71344;BME280;59146;43.850;25.948;2023-05-19T11:02:07;101276.66;;;26.61;36.84
71344;BME280;59146;43.850;25.948;2023-05-19T11:04:45;101252.44;;;26.24;37.36
71344;BME280;59146;43.850;25.948;2023-05-19T11:07:17;101232.47;;;26.04;37.95
71344;BME280;59146;43.850;25.948;2023-05-19T11:09:48;101259.13;;;26.28;37.32
71344;BME280;59146;43.850;25.948;2023-05-19T11:12:19;101247.97;;;26.47;38.15
71344;BME280;59146;43.850;25.948;2023-05-19T11:14:45;101228.44;;;26.84;37.89
71344;BME280;59146;43.850;25.948;2023-05-19T11:17:14;101229.41;;;27.42;36.49
71344;BME280;59146;43.850;25.948;2023-05-19T11:19:54;101266.72;;;27.67;35.37
71344;BME280;59146;43.850;25.948;2023-05-19T11:22:24;101203.50;;;26.83;34.72
71344;BME280;59146;43.850;25.948;2023-05-19T11:24:50;101262.94;;;26.87;34.92
71344;BME280;59146;43.850;25.948;2023-05-19T11:27:28;101173.31;;;25.90;35.58
71344;BME280;59146;43.850;25.948;2023-05-19T11:29:57;101189.88;;;26.47;34.66
71344;BME280;59146;43.850;25.948;2023-05-19T11:32:28;101230.66;;;27.17;33.25
71344;BME280;59146;43.850;25.948;2023-05-19T11:34:54;101194.00;;;26.95;34.29
71344;BME280;59146;43.850;25.948;2023-05-19T11:37:20;101238.66;;;27.03;34.52
71344;BME280;59146;43.850;25.948;2023-05-19T11:39:46;101229.66;;;27.33;34.76
71344;BME280;59146;43.850;25.948;2023-05-19T11:42:12;101228.78;;;27.55;35.67
71344;BME280;59146;43.850;25.948;2023-05-19T11:44:38;101167.69;;;27.72;33.05
71344;BME280;59146;43.850;25.948;2023-05-19T11:47:05;101184.94;;;27.48;33.19
71344;BME280;59146;43.850;25.948;2023-05-19T11:49:31;101162.84;;;26.94;32.38
71344;BME280;59146;43.850;25.948;2023-05-19T11:51:56;101211.47;;;26.91;32.50
71344;BME280;59146;43.850;25.948;2023-05-19T11:54:31;101202.50;;;26.99;30.54
71344;BME280;59146;43.850;25.948;2023-05-19T11:56:59;101179.56;;;26.96;29.83
71344;BME280;59146;43.850;25.948;2023-05-19T11:59:33;101160.38;;;27.07;29.75
71344;BME280;59146;43.850;25.948;2023-05-19T12:02:15;101074.94;;;26.90;27.02
71344;BME280;59146;43.850;25.948;2023-05-19T12:04:40;101144.09;;;27.52;29.15
71344;BME280;59146;43.850;25.948;2023-05-19T12:07:06;101190.28;;;27.77;28.60
71344;BME280;59146;43.850;25.948;2023-05-19T12:09:31;101161.03;;;27.68;27.98
71344;BME280;59146;43.850;25.948;2023-05-19T12:11:57;101184.16;;;27.98;27.52
71344;BME280;59146;43.850;25.948;2023-05-19T12:14:24;101175.69;;;28.01;26.87
71344;BME280;59146;43.850;25.948;2023-05-19T12:16:50;101163.31;;;27.85;27.84
71344;BME280;59146;43.850;25.948;2023-05-19T12:19:15;101174.69;;;28.02;28.17
71344;BME280;59146;43.850;25.948;2023-05-19T12:21:41;101130.75;;;27.74;28.39
71344;BME280;59146;43.850;25.948;2023-05-19T12:24:07;101148.28;;;27.91;27.92
71344;BME280;59146;43.850;25.948;2023-05-19T12:26:34;101158.31;;;27.97;28.21
71344;BME280;59146;43.850;25.948;2023-05-19T12:29:01;101149.50;;;28.03;26.88
71344;BME280;59146;43.850;25.948;2023-05-19T12:31:26;101139.16;;;27.85;27.46
71344;BME280;59146;43.850;25.948;2023-05-19T12:33:52;101151.81;;;27.91;28.89
71344;BME280;59146;43.850;25.948;2023-05-19T12:36:17;101148.13;;;27.78;26.74
71344;BME280;59146;43.850;25.948;2023-05-19T12:38:44;101102.56;;;27.48;26.36
71344;BME280;59146;43.850;25.948;2023-05-19T12:41:13;101151.41;;;27.73;26.58
71344;BME280;59146;43.850;25.948;2023-05-19T12:43:39;101018.91;;;27.09;27.52
71344;BME280;59146;43.850;25.948;2023-05-19T12:46:09;101141.69;;;27.72;26.15
71344;BME280;59146;43.850;25.948;2023-05-19T12:48:39;101142.53;;;27.73;26.53
71344;BME280;59146;43.850;25.948;2023-05-19T12:51:05;101142.38;;;27.95;27.06
71344;BME280;59146;43.850;25.948;2023-05-19T12:53:31;101174.00;;;28.14;26.26
71344;BME280;59146;43.850;25.948;2023-05-19T12:55:57;101074.81;;;27.92;26.78
71344;BME280;59146;43.850;25.948;2023-05-19T12:58:22;101107.16;;;28.26;26.28
71344;BME280;59146;43.850;25.948;2023-05-19T13:00:48;101089.53;;;28.17;26.67
71344;BME280;59146;43.850;25.948;2023-05-19T13:03:18;101154.19;;;28.37;27.68
71344;BME280;59146;43.850;25.948;2023-05-19T13:05:46;101135.78;;;28.12;27.16
71344;BME280;59146;43.850;25.948;2023-05-19T13:08:15;101020.66;;;27.46;27.17